createdAt,value
2023-11-22T00:00:44.905Z,99.90
2023-11-22T00:02:48.283Z,99.90
2023-11-22T00:04:50.416Z,99.90
2023-11-22T00:06:52.394Z,99.90
2023-11-22T00:08:54.427Z,99.90
2023-11-22T00:10:56.478Z,99.90
2023-11-22T00:12:59.864Z,99.90
2023-11-22T00:15:04.537Z,99.90
2023-11-22T00:17:06.807Z,99.90
2023-11-22T00:19:08.843Z,99.90
2023-11-22T00:21:11.064Z,99.90
2023-11-22T00:23:14.272Z,99.90
2023-11-22T00:25:16.577Z,99.90
2023-11-22T00:27:18.728Z,99.90
2023-11-22T00:29:20.788Z,99.90
2023-11-22T00:31:24.570Z,99.90
2023-11-22T00:33:26.664Z,99.90
2023-11-22T00:35:28.723Z,99.90
2023-11-22T00:37:30.800Z,99.90
2023-11-22T00:39:32.939Z,99.90
2023-11-22T00:41:36.633Z,99.90
2023-11-22T00:43:38.658Z,99.90
2023-11-22T00:45:41.115Z,99.90
2023-11-22T00:47:44.544Z,99.90
2023-11-22T00:49:47.709Z,99.90
2023-11-22T00:51:49.681Z,99.90
2023-11-22T00:53:52.163Z,99.90
2023-11-22T00:55:54.182Z,99.90
2023-11-22T00:57:57.544Z,99.90
2023-11-22T00:59:59.590Z,99.90
2023-11-22T01:02:03.378Z,99.90
2023-11-22T01:04:08.372Z,99.90
2023-11-22T01:06:10.803Z,99.90
2023-11-22T01:08:12.845Z,99.90
2023-11-22T01:10:16.496Z,99.90
2023-11-22T01:12:18.586Z,99.90
2023-11-22T01:14:20.818Z,99.90
2023-11-22T01:16:23.745Z,99.90
2023-11-22T01:18:26.086Z,99.90
2023-11-22T01:20:29.673Z,99.90
2023-11-22T01:22:32.159Z,99.90
2023-11-22T01:24:34.339Z,99.90
2023-11-22T01:26:37.126Z,99.90
2023-11-22T01:28:45.160Z,99.90
2023-11-22T01:30:47.347Z,99.90
2023-11-22T01:32:50.444Z,99.90
2023-11-22T01:34:52.758Z,99.90
2023-11-22T01:36:56.072Z,99.90
2023-11-22T01:38:58.256Z,99.90
2023-11-22T01:41:01.601Z,99.90
2023-11-22T01:43:03.691Z,99.90
2023-11-22T01:45:06.832Z,99.90
2023-11-22T01:47:09.753Z,99.90
2023-11-22T01:49:12.261Z,99.90
2023-11-22T01:51:14.305Z,99.90
2023-11-22T01:53:18.253Z,99.90
2023-11-22T01:55:20.339Z,99.90
2023-11-22T01:57:22.581Z,99.90
2023-11-22T01:59:27.219Z,99.90
2023-11-22T02:01:29.880Z,99.90
2023-11-22T02:03:32.013Z,99.90
2023-11-22T02:05:34.737Z,99.90
2023-11-22T02:07:36.705Z,99.90
2023-11-22T02:09:40.054Z,99.90
2023-11-22T02:11:43.268Z,99.90
2023-11-22T02:13:45.429Z,99.90
2023-11-22T02:15:47.821Z,99.90
2023-11-22T02:17:50.068Z,99.90
2023-11-22T02:19:52.967Z,99.90
2023-11-22T02:21:54.970Z,99.90
2023-11-22T02:23:58.282Z,99.90
2023-11-22T02:26:00.333Z,99.90
2023-11-22T02:28:03.512Z,99.90
2023-11-22T02:30:06.876Z,99.90
2023-11-22T02:32:09.251Z,99.90
2023-11-22T02:34:11.496Z,99.90
2023-11-22T02:36:13.775Z,99.90
2023-11-22T02:38:16.008Z,99.90
2023-11-22T02:40:21.225Z,99.90
2023-11-22T02:42:25.596Z,99.90
2023-11-22T02:44:27.983Z,99.90
2023-11-22T02:46:32.296Z,99.90
2023-11-22T02:48:34.668Z,99.90
2023-11-22T02:50:38.168Z,99.90
2023-11-22T02:52:40.209Z,99.90
2023-11-22T02:54:44.822Z,99.90
2023-11-22T02:56:48.230Z,99.90
2023-11-22T02:58:50.194Z,99.90
2023-11-22T03:00:55.769Z,99.90
2023-11-22T03:02:58.083Z,99.90
2023-11-22T03:05:00.508Z,99.90
2023-11-22T03:07:02.881Z,99.90
2023-11-22T03:09:05.704Z,99.90
2023-11-22T03:11:08.070Z,99.90
2023-11-22T03:13:11.656Z,99.90
2023-11-22T03:15:13.869Z,99.90
2023-11-22T03:17:16.369Z,99.90
2023-11-22T03:19:20.562Z,99.90
2023-11-22T03:21:22.638Z,99.90
2023-11-22T03:23:24.704Z,99.90
2023-11-22T03:25:26.770Z,99.90
2023-11-22T03:27:28.748Z,99.90
2023-11-22T03:29:32.175Z,99.90
2023-11-22T03:31:34.252Z,99.90
2023-11-22T03:33:36.206Z,99.90
2023-11-22T03:39:52.312Z,99.90
2023-11-22T03:41:54.626Z,99.90
2023-11-22T03:43:57.032Z,99.90
2023-11-22T03:46:00.553Z,99.90
2023-11-22T03:48:02.561Z,99.90
2023-11-22T03:50:06.731Z,99.90
2023-11-22T03:52:09.377Z,99.90
2023-11-22T03:54:13.628Z,99.90
2023-11-22T03:56:15.679Z,99.90
2023-11-22T03:58:19.155Z,99.90
2023-11-22T04:00:21.203Z,99.90
2023-11-22T04:02:24.876Z,99.90
2023-11-22T04:04:26.845Z,99.90
2023-11-22T04:06:29.108Z,99.90
2023-11-22T04:08:31.658Z,99.90
2023-11-22T04:10:33.690Z,99.90
2023-11-22T04:12:37.059Z,99.90
2023-11-22T04:14:39.298Z,99.90
2023-11-22T04:16:41.741Z,99.90
2023-11-22T04:18:45.763Z,99.90
2023-11-22T04:20:49.004Z,99.90
2023-11-22T04:22:52.008Z,99.90
2023-11-22T04:24:54.024Z,99.90
2023-11-22T04:26:56.034Z,99.90
2023-11-22T04:28:59.639Z,99.90
2023-11-22T04:31:01.856Z,99.90
2023-11-22T04:33:04.042Z,99.90
2023-11-22T04:35:09.039Z,99.90
2023-11-22T04:37:11.209Z,99.90
2023-11-22T04:39:14.153Z,99.90
2023-11-22T04:41:16.767Z,99.90
2023-11-22T04:43:18.743Z,99.90
2023-11-22T04:45:20.945Z,99.90
2023-11-22T04:47:23.557Z,99.90
2023-11-22T04:49:25.594Z,99.90
2023-11-22T04:51:30.344Z,99.90
2023-11-22T04:53:33.411Z,99.90
2023-11-22T04:55:35.595Z,99.90
2023-11-22T04:57:37.657Z,99.90
2023-11-22T04:59:39.789Z,99.90
2023-11-22T05:01:42.022Z,99.90
2023-11-22T05:03:44.263Z,99.90
2023-11-22T05:05:46.973Z,99.90
2023-11-22T05:07:50.288Z,99.90
2023-11-22T05:09:52.281Z,99.90
2023-11-22T05:11:54.520Z,99.90
2023-11-22T05:13:56.768Z,99.90
2023-11-22T05:15:58.788Z,99.90
2023-11-22T05:18:01.325Z,99.90
2023-11-22T05:20:03.748Z,99.90
2023-11-22T05:22:06.348Z,99.90
2023-11-22T05:24:10.097Z,99.90
2023-11-22T05:26:12.232Z,99.90
2023-11-22T05:28:14.293Z,99.90
2023-11-22T05:30:17.950Z,99.90
2023-11-22T05:32:20.026Z,99.90
2023-11-22T05:34:22.249Z,99.90
2023-11-22T05:36:25.593Z,99.90
2023-11-22T05:38:28.234Z,99.90
2023-11-22T05:40:31.815Z,99.90
2023-11-22T05:42:36.225Z,99.70
2023-11-22T05:44:38.807Z,99.50
2023-11-22T05:46:41.357Z,99.80
2023-11-22T05:48:43.384Z,99.80
2023-11-22T05:50:46.537Z,99.70
2023-11-22T05:52:49.090Z,99.80
2023-11-22T05:54:51.222Z,99.90
2023-11-22T05:56:55.478Z,99.90
2023-11-22T05:59:00.636Z,99.90
2023-11-22T06:01:02.601Z,99.90
2023-11-22T06:03:04.582Z,99.90
2023-11-22T06:05:07.937Z,99.70
2023-11-22T06:07:10.181Z,99.70
2023-11-22T06:09:15.504Z,99.30
2023-11-22T06:11:17.494Z,99.40
2023-11-22T06:13:20.966Z,99.10
2023-11-22T06:15:23.617Z,99.20
2023-11-22T06:17:25.710Z,99.70
2023-11-22T06:19:27.818Z,99.50
2023-11-22T06:21:30.262Z,99.70
2023-11-22T06:23:32.376Z,99.90
2023-11-22T06:25:34.401Z,99.90
2023-11-22T06:27:36.463Z,99.90
2023-11-22T06:29:39.804Z,99.90
2023-11-22T06:31:41.814Z,99.90
2023-11-22T06:33:43.749Z,99.90
2023-11-22T06:35:46.241Z,99.90
2023-11-22T06:37:48.576Z,99.90
2023-11-22T06:39:51.958Z,99.90
2023-11-22T06:41:54.112Z,99.90
2023-11-22T06:43:56.112Z,99.90
2023-11-22T06:45:59.376Z,99.90
2023-11-22T06:48:01.426Z,99.90
2023-11-22T06:50:10.118Z,99.90
2023-11-22T06:52:12.195Z,99.90
2023-11-22T06:54:14.168Z,99.90
2023-11-22T06:56:16.218Z,99.90
2023-11-22T06:58:19.091Z,99.90
2023-11-22T07:00:21.571Z,99.90
2023-11-22T07:02:25.527Z,99.90
2023-11-22T07:04:28.818Z,99.90
2023-11-22T07:06:30.781Z,99.90
2023-11-22T07:08:33.064Z,99.90
2023-11-22T07:10:35.105Z,99.90
2023-11-22T07:12:37.718Z,99.90
2023-11-22T07:14:40.403Z,99.90
2023-11-22T07:16:42.364Z,99.90
2023-11-22T07:18:46.333Z,99.90
2023-11-22T07:20:49.340Z,99.90
2023-11-22T07:22:56.302Z,99.90
2023-11-22T07:25:02.485Z,99.90
2023-11-22T07:27:05.130Z,99.90
2023-11-22T07:29:07.657Z,99.90
2023-11-22T07:31:10.409Z,99.90
2023-11-22T07:33:12.737Z,99.90
2023-11-22T07:35:16.729Z,99.90
2023-11-22T07:37:19.356Z,99.90
2023-11-22T07:39:28.236Z,99.90
2023-11-22T07:41:32.350Z,99.90
2023-11-22T07:43:34.365Z,99.90
2023-11-22T07:45:38.298Z,99.90
2023-11-22T07:47:41.673Z,99.90
2023-11-22T07:49:44.140Z,99.90
2023-11-22T07:51:47.466Z,99.90
2023-11-22T07:53:49.824Z,99.90
2023-11-22T07:55:53.068Z,99.90
2023-11-22T07:57:56.876Z,99.90
2023-11-22T07:59:58.899Z,99.90
2023-11-22T08:02:02.822Z,99.90
2023-11-22T08:04:06.434Z,99.90
2023-11-22T08:06:09.650Z,99.90
2023-11-22T08:08:14.279Z,99.90
2023-11-22T08:10:19.674Z,99.90
2023-11-22T08:12:22.339Z,99.90
2023-11-22T08:14:26.007Z,99.90
2023-11-22T08:16:28.293Z,99.90
2023-11-22T08:18:30.457Z,99.90
2023-11-22T08:20:32.819Z,99.90
2023-11-22T08:22:36.457Z,99.90
2023-11-22T08:24:39.996Z,99.90
2023-11-22T08:26:42.053Z,99.90
2023-11-22T08:28:44.091Z,99.90
2023-11-22T08:30:46.077Z,99.90
2023-11-22T08:32:54.706Z,99.90
2023-11-22T08:34:57.546Z,99.90
2023-11-22T08:37:00.221Z,99.90
2023-11-22T08:39:02.258Z,99.90
2023-11-22T08:41:06.918Z,99.90
2023-11-22T08:43:10.439Z,99.90
2023-11-22T08:45:13.210Z,99.90
2023-11-22T08:47:15.299Z,99.90
2023-11-22T08:49:17.266Z,99.90
2023-11-22T08:51:19.214Z,99.90
2023-11-22T08:53:21.332Z,99.90
2023-11-22T08:55:23.590Z,99.90
2023-11-22T08:57:27.003Z,99.90
2023-11-22T08:59:29.388Z,99.90
2023-11-22T09:01:31.540Z,99.90
2023-11-22T09:03:34.144Z,99.90
2023-11-22T09:05:37.280Z,99.90
2023-11-22T09:07:40.462Z,99.90
2023-11-22T09:09:44.350Z,99.90
2023-11-22T09:11:46.910Z,99.20
2023-11-22T09:13:51.438Z,99.90
2023-11-22T09:15:53.514Z,98.80
2023-11-22T09:17:56.370Z,99.30
2023-11-22T09:19:59.679Z,99.90
2023-11-22T09:22:01.956Z,98.80
2023-11-22T09:24:06.925Z,98.60
2023-11-22T09:26:09.286Z,99.00
2023-11-22T09:28:12.255Z,98.70
2023-11-22T09:30:20.991Z,99.10
2023-11-22T09:32:24.663Z,98.60
2023-11-22T09:34:27.465Z,99.50
2023-11-22T09:36:30.927Z,99.10
2023-11-22T09:38:32.971Z,99.90
2023-11-22T09:40:39.475Z,99.20
2023-11-22T09:42:42.472Z,98.80
2023-11-22T09:44:44.600Z,98.60
2023-11-22T09:46:49.950Z,99.90
2023-11-22T09:48:54.308Z,98.70
2023-11-22T09:51:02.326Z,98.10
2023-11-22T09:53:11.721Z,97.90
2023-11-22T09:55:14.623Z,97.50
2023-11-22T09:57:18.617Z,98.60
2023-11-22T09:59:24.706Z,97.80
2023-11-22T10:01:29.235Z,97.10
2023-11-22T10:03:33.115Z,97.30
2023-11-22T10:05:35.376Z,97.10
2023-11-22T10:07:37.678Z,98.20
2023-11-22T10:09:42.593Z,98.10
2023-11-22T10:11:45.228Z,98.00
2023-11-22T10:13:48.935Z,97.40
2023-11-22T10:15:52.070Z,97.00
2023-11-22T10:18:02.588Z,97.50
2023-11-22T10:20:12.333Z,97.00
2023-11-22T10:22:18.552Z,97.30
2023-11-22T10:24:22.595Z,97.30
2023-11-22T10:26:25.685Z,97.10
2023-11-22T10:28:29.241Z,96.20
2023-11-22T10:30:31.454Z,96.00
2023-11-22T10:32:34.897Z,95.80
2023-11-22T10:34:37.630Z,95.80
2023-11-22T10:36:42.174Z,96.50
2023-11-22T10:38:48.660Z,96.30
2023-11-22T10:40:53.312Z,96.60
2023-11-22T10:42:57.438Z,95.70
2023-11-22T10:45:03.406Z,95.90
2023-11-22T10:47:06.368Z,96.80
2023-11-22T10:49:10.272Z,96.00
2023-11-22T10:51:15.321Z,96.40
2023-11-22T10:53:27.017Z,96.20
2023-11-22T10:55:33.461Z,95.50
2023-11-22T10:57:42.334Z,96.40
2023-11-22T10:59:46.708Z,95.90
2023-11-22T11:01:54.048Z,95.40
2023-11-22T11:04:02.059Z,95.60
2023-11-22T11:06:08.761Z,95.10
2023-11-22T11:08:14.050Z,96.00
2023-11-22T11:10:24.850Z,95.60
2023-11-22T11:12:28.313Z,95.80
2023-11-22T11:14:31.277Z,96.00
2023-11-22T11:16:38.860Z,96.10
2023-11-22T11:18:41.525Z,95.10
2023-11-22T11:20:50.547Z,95.40
2023-11-22T11:22:56.180Z,94.80
2023-11-22T11:25:04.352Z,94.40
2023-11-22T11:27:09.102Z,94.50
2023-11-22T11:29:30.964Z,94.50
2023-11-22T11:31:37.070Z,94.30
2023-11-22T11:33:55.160Z,94.40
2023-11-22T11:35:58.794Z,92.90
2023-11-22T11:38:02.925Z,92.80
2023-11-22T11:40:26.265Z,94.10
2023-11-22T11:42:30.089Z,93.60
2023-11-22T11:44:32.230Z,93.20
2023-11-22T11:46:34.445Z,93.90
2023-11-22T11:48:36.544Z,93.60
2023-11-22T11:50:38.780Z,92.70
2023-11-22T11:52:41.391Z,92.60
2023-11-22T11:54:43.724Z,91.60
2023-11-22T11:56:45.915Z,92.30
2023-11-22T11:58:50.681Z,91.70
2023-11-22T12:00:53.689Z,91.60
2023-11-22T12:02:55.734Z,91.30
2023-11-22T12:04:57.761Z,92.00
2023-11-22T12:06:59.911Z,91.10
2023-11-22T12:09:02.187Z,90.40
2023-11-22T12:11:06.021Z,91.60
2023-11-22T12:13:08.902Z,92.20
2023-11-22T12:15:12.653Z,91.10
2023-11-22T12:17:15.143Z,91.40
2023-11-22T12:19:24.066Z,90.00
2023-11-22T12:21:26.886Z,91.30
2023-11-22T12:23:29.768Z,91.10
2023-11-22T12:25:32.056Z,90.00
2023-11-22T12:27:34.062Z,90.00
2023-11-22T12:29:37.676Z,90.80
2023-11-22T12:31:47.486Z,90.80
2023-11-22T12:33:51.663Z,88.40
2023-11-22T12:35:54.906Z,89.50
2023-11-22T12:37:57.196Z,90.50
2023-11-22T12:39:59.302Z,89.80
2023-11-22T12:42:07.085Z,87.80
2023-11-22T12:44:13.817Z,87.10
2023-11-22T12:46:17.492Z,90.40
2023-11-22T12:48:25.652Z,86.40
2023-11-22T12:50:35.140Z,88.30
2023-11-22T12:52:37.242Z,90.70
2023-11-22T12:54:39.793Z,89.00
2023-11-22T12:56:42.257Z,90.60
2023-11-22T12:58:44.250Z,90.40
2023-11-22T13:00:47.388Z,89.30
2023-11-22T13:02:56.304Z,89.40
2023-11-22T13:05:13.198Z,89.50
2023-11-22T13:07:15.281Z,90.40
2023-11-22T13:09:18.023Z,89.40
2023-11-22T13:11:20.542Z,90.20
2023-11-22T13:13:22.829Z,88.20
2023-11-22T13:15:27.170Z,86.60
2023-11-22T13:17:29.498Z,87.20
2023-11-22T13:19:31.441Z,90.10
2023-11-22T13:21:34.830Z,90.10
2023-11-22T13:23:36.859Z,89.10
2023-11-22T13:25:39.264Z,87.80
2023-11-22T13:27:41.813Z,90.30
2023-11-22T13:29:45.192Z,88.10
2023-11-22T13:31:47.247Z,87.40
2023-11-22T13:33:49.340Z,89.70
2023-11-22T13:35:52.212Z,90.00
2023-11-22T13:37:55.729Z,89.80
2023-11-22T13:39:57.734Z,88.70
2023-11-22T13:41:59.717Z,86.50
2023-11-22T13:44:02.703Z,88.90
2023-11-22T13:46:05.909Z,87.00
2023-11-22T13:48:10.700Z,89.10
2023-11-22T13:50:15.328Z,90.10
2023-11-22T13:52:17.294Z,87.50
2023-11-22T13:54:20.846Z,86.40
2023-11-22T13:56:23.280Z,88.60
2023-11-22T13:58:25.581Z,88.90
2023-11-22T14:00:33.406Z,88.00
2023-11-22T14:02:35.516Z,89.80
2023-11-22T14:04:37.588Z,87.60
2023-11-22T14:06:39.542Z,85.90
2023-11-22T14:08:41.644Z,86.00
2023-11-22T14:10:45.988Z,84.20
2023-11-22T14:12:48.420Z,83.80
2023-11-22T14:14:50.454Z,84.10
2023-11-22T14:16:52.406Z,86.90
2023-11-22T14:18:54.556Z,88.40
2023-11-22T14:20:57.403Z,85.70
2023-11-22T14:22:59.587Z,83.50
2023-11-22T14:25:01.588Z,86.10
2023-11-22T14:27:05.020Z,86.10
2023-11-22T14:29:07.076Z,86.30
2023-11-22T14:31:11.888Z,83.50
2023-11-22T14:33:16.878Z,86.30
2023-11-22T14:35:19.089Z,84.10
2023-11-22T14:37:21.205Z,88.00
2023-11-22T14:39:23.130Z,88.40
2023-11-22T14:41:25.259Z,88.10
2023-11-22T14:43:28.676Z,89.60
2023-11-22T14:45:31.148Z,88.60
2023-11-22T14:47:37.159Z,88.60
2023-11-22T14:49:45.889Z,89.30
2023-11-22T14:51:49.496Z,86.90
2023-11-22T14:53:51.640Z,85.50
2023-11-22T14:55:53.973Z,87.60
2023-11-22T14:57:58.087Z,88.30
2023-11-22T15:00:01.511Z,88.30
2023-11-22T15:02:05.653Z,88.80
2023-11-22T15:04:07.757Z,88.60
2023-11-22T15:06:10.268Z,88.10
2023-11-22T15:08:12.367Z,87.40
2023-11-22T15:10:16.175Z,88.00
2023-11-22T15:12:19.883Z,87.40
2023-11-22T15:14:23.661Z,88.30
2023-11-22T15:16:27.897Z,88.80
2023-11-22T15:18:31.796Z,88.90
2023-11-22T15:20:34.898Z,90.10
2023-11-22T15:22:37.457Z,89.80
2023-11-22T15:24:39.472Z,89.30
2023-11-22T15:26:41.472Z,89.40
2023-11-22T15:28:43.462Z,89.70
2023-11-22T15:30:45.511Z,90.10
2023-11-22T15:32:49.437Z,90.30
2023-11-22T15:34:51.814Z,90.10
2023-11-22T15:36:53.889Z,89.90
2023-11-22T15:38:55.926Z,88.20
2023-11-22T15:41:07.839Z,90.30
2023-11-22T15:43:17.619Z,90.00
2023-11-22T15:45:19.568Z,90.10
2023-11-22T15:47:21.553Z,90.00
2023-11-22T15:49:25.380Z,90.70
2023-11-22T15:51:27.694Z,90.50
2023-11-22T15:53:29.699Z,90.30
2023-11-22T15:55:31.772Z,90.70
2023-11-22T15:57:34.224Z,90.20
2023-11-22T15:59:36.268Z,90.00
2023-11-22T16:01:38.339Z,90.40
2023-11-22T16:03:40.638Z,90.40
2023-11-22T16:05:44.538Z,90.50
2023-11-22T16:07:46.598Z,90.90
2023-11-22T16:09:49.436Z,90.80
2023-11-22T16:11:51.489Z,90.90
2023-11-22T16:13:53.545Z,90.60
2023-11-22T16:15:58.863Z,91.00
2023-11-22T16:18:01.068Z,90.80
2023-11-22T16:20:11.755Z,90.80
2023-11-22T16:22:15.329Z,90.70
2023-11-22T16:24:17.418Z,90.90
2023-11-22T16:26:20.504Z,91.00
2023-11-22T16:28:22.461Z,90.30
2023-11-22T16:30:24.442Z,91.20
2023-11-22T16:32:26.903Z,91.10
2023-11-22T16:34:29.248Z,91.20
2023-11-22T16:36:31.303Z,91.40
2023-11-22T16:38:35.124Z,90.90
2023-11-22T16:40:37.920Z,90.80
2023-11-22T16:42:39.961Z,91.00
2023-11-22T16:44:44.237Z,91.70
2023-11-22T16:46:50.318Z,91.40
2023-11-22T16:48:55.366Z,91.40
2023-11-22T16:50:57.288Z,91.50
2023-11-22T16:52:59.354Z,91.40
2023-11-22T16:55:04.656Z,91.00
2023-11-22T16:57:07.043Z,91.60
2023-11-22T16:59:09.315Z,91.10
2023-11-22T17:01:11.731Z,91.20
2023-11-22T17:03:19.502Z,91.50
2023-11-22T17:05:24.069Z,91.50
2023-11-22T17:07:26.341Z,91.50
2023-11-22T17:09:28.362Z,91.60
2023-11-22T17:11:31.764Z,91.30
2023-11-22T17:13:33.944Z,91.40
2023-11-22T17:15:36.857Z,91.70
2023-11-22T17:17:40.500Z,92.00
2023-11-22T17:19:42.566Z,91.70
2023-11-22T17:21:44.748Z,91.70
2023-11-22T17:23:46.828Z,92.10
2023-11-22T17:25:48.954Z,92.20
2023-11-22T17:27:55.451Z,92.50
2023-11-22T17:29:58.377Z,92.80
2023-11-22T17:32:00.594Z,93.10
2023-11-22T17:34:02.765Z,93.20
2023-11-22T17:36:05.876Z,93.50
2023-11-22T17:38:08.310Z,93.00
2023-11-22T17:40:11.407Z,93.40
2023-11-22T17:42:13.796Z,93.40
2023-11-22T17:44:18.018Z,93.90
2023-11-22T17:46:20.059Z,93.70
2023-11-22T17:48:23.898Z,93.90
2023-11-22T17:50:26.001Z,94.00
2023-11-22T17:52:28.060Z,93.80
2023-11-22T17:54:30.065Z,94.50
2023-11-22T17:56:32.255Z,95.50
2023-11-22T17:58:35.491Z,94.40
2023-11-22T18:00:39.129Z,94.50
2023-11-22T18:02:41.482Z,94.50
2023-11-22T18:04:44.062Z,94.50
2023-11-22T18:06:46.203Z,95.30
2023-11-22T18:08:48.335Z,94.70
2023-11-22T18:10:53.176Z,94.70
2023-11-22T18:12:55.073Z,94.60
2023-11-22T18:14:57.160Z,94.90
2023-11-22T18:17:00.838Z,95.30
2023-11-22T18:19:03.373Z,95.60
2023-11-22T18:21:05.991Z,95.00
2023-11-22T18:23:08.657Z,94.10
2023-11-22T18:25:12.641Z,94.70
2023-11-22T18:27:15.237Z,94.40
2023-11-22T18:29:17.317Z,94.80
2023-11-22T18:31:19.455Z,94.50
2023-11-22T18:33:22.971Z,95.00
2023-11-22T18:35:25.047Z,95.60
2023-11-22T18:37:28.152Z,95.30
2023-11-22T18:39:31.094Z,95.60
2023-11-22T18:41:33.910Z,96.00
2023-11-22T18:43:36.291Z,95.20
2023-11-22T18:45:38.300Z,95.00
2023-11-22T18:47:40.474Z,96.30
2023-11-22T18:49:44.432Z,95.70
2023-11-22T18:51:46.382Z,95.30
2023-11-22T18:53:50.241Z,95.40
2023-11-22T18:55:53.802Z,95.50
2023-11-22T18:57:56.779Z,94.80
2023-11-22T18:59:59.981Z,94.50
2023-11-22T19:02:03.635Z,95.40
2023-11-22T19:04:07.067Z,95.70
2023-11-22T19:06:10.699Z,95.30
2023-11-22T19:08:13.029Z,95.20
2023-11-22T19:10:15.306Z,95.70
2023-11-22T19:12:18.637Z,95.40
2023-11-22T19:14:21.576Z,95.40
2023-11-22T19:16:23.619Z,95.70
2023-11-22T19:18:25.710Z,94.40
2023-11-22T19:20:28.666Z,95.10
2023-11-22T19:22:32.954Z,94.60
2023-11-22T19:24:35.019Z,95.60
2023-11-22T19:26:37.382Z,95.40
2023-11-22T19:28:39.388Z,95.50
2023-11-22T19:30:41.464Z,95.00
2023-11-22T19:32:43.619Z,95.70
2023-11-22T19:34:45.715Z,95.40
2023-11-22T19:36:47.688Z,95.60
2023-11-22T19:38:54.859Z,95.30
2023-11-22T19:40:57.112Z,95.50
2023-11-22T19:42:59.078Z,95.30
2023-11-22T19:45:01.975Z,95.00
2023-11-22T19:47:05.433Z,95.70
2023-11-22T19:49:10.182Z,95.80
2023-11-22T19:51:12.929Z,95.90
2023-11-22T19:53:14.982Z,95.80
2023-11-22T19:55:19.985Z,95.20
2023-11-22T19:57:23.158Z,95.10
2023-11-22T19:59:25.222Z,95.20
2023-11-22T20:01:27.500Z,95.10
2023-11-22T20:03:29.661Z,95.40
2023-11-22T20:05:31.870Z,95.90
2023-11-22T20:07:34.171Z,94.90
2023-11-22T20:09:38.287Z,95.20
2023-11-22T20:11:41.632Z,95.80
2023-11-22T20:13:44.167Z,96.00
2023-11-22T20:15:46.192Z,95.90
2023-11-22T20:17:48.413Z,95.70
2023-11-22T20:19:50.424Z,96.10
2023-11-22T20:21:53.071Z,95.50
2023-11-22T20:23:55.187Z,96.30
2023-11-22T20:25:57.230Z,96.20
2023-11-22T20:28:00.988Z,95.80
2023-11-22T20:30:03.353Z,96.60
2023-11-22T20:32:05.735Z,96.20
2023-11-22T20:34:07.826Z,96.50
2023-11-22T20:36:15.158Z,96.90
2023-11-22T20:38:17.162Z,96.90
2023-11-22T20:40:19.588Z,96.20
2023-11-22T20:42:21.587Z,96.60
2023-11-22T20:44:25.702Z,96.00
2023-11-22T20:46:27.983Z,96.40
2023-11-22T20:48:30.814Z,95.90
2023-11-22T20:50:33.102Z,96.50
2023-11-22T20:52:35.156Z,96.50
2023-11-22T20:54:37.848Z,95.80
2023-11-22T20:56:39.867Z,96.00
2023-11-22T20:58:41.902Z,96.10
2023-11-22T21:00:45.219Z,95.70
2023-11-22T21:02:47.296Z,95.80
2023-11-22T21:04:49.657Z,95.50
2023-11-22T21:06:51.689Z,96.00
2023-11-22T21:08:54.698Z,95.70
2023-11-22T21:10:56.863Z,94.60
2023-11-22T21:12:59.292Z,94.70
2023-11-22T21:15:01.357Z,95.40
2023-11-22T21:17:07.241Z,95.30
2023-11-22T21:19:09.851Z,95.30
2023-11-22T21:21:14.128Z,95.50
2023-11-22T21:23:16.307Z,95.60
2023-11-22T21:25:18.322Z,95.30
2023-11-22T21:27:20.430Z,95.40
2023-11-22T21:29:23.228Z,95.90
2023-11-22T21:31:25.408Z,94.90
2023-11-22T21:33:29.735Z,95.20
2023-11-22T21:35:31.767Z,95.30
2023-11-22T21:37:34.028Z,95.40
2023-11-22T21:39:35.966Z,95.20
2023-11-22T21:41:44.066Z,95.00
2023-11-22T21:43:46.216Z,95.30
2023-11-22T21:45:48.194Z,95.40
2023-11-22T21:47:50.470Z,95.30
2023-11-22T21:49:53.865Z,94.70
2023-11-22T21:51:56.372Z,95.20
2023-11-22T21:53:58.379Z,94.20
2023-11-22T21:56:04.857Z,94.50
2023-11-22T21:58:06.942Z,94.70
2023-11-22T22:00:12.275Z,95.00
2023-11-22T22:02:14.626Z,95.10
2023-11-22T22:04:17.210Z,95.80
2023-11-22T22:06:21.166Z,95.50
2023-11-22T22:08:23.085Z,95.00
2023-11-22T22:10:25.108Z,94.50
2023-11-22T22:12:27.099Z,94.90
2023-11-22T22:14:29.211Z,95.50
2023-11-22T22:16:31.161Z,94.80
2023-11-22T22:18:33.683Z,94.70
2023-11-22T22:20:43.250Z,95.00
2023-11-22T22:22:54.172Z,95.20
2023-11-22T22:24:56.163Z,95.10
2023-11-22T22:26:58.165Z,94.70
2023-11-22T22:29:00.204Z,94.80
2023-11-22T22:31:02.417Z,94.80
2023-11-22T22:33:04.861Z,94.30
2023-11-22T22:35:07.519Z,94.50
2023-11-22T22:37:09.551Z,95.10
2023-11-22T22:39:14.767Z,95.00
2023-11-22T22:41:20.638Z,95.20
2023-11-22T22:43:22.742Z,96.00
2023-11-22T22:45:24.722Z,95.80
2023-11-22T22:47:27.084Z,95.40
2023-11-22T22:49:29.424Z,95.30
2023-11-22T22:51:32.268Z,95.00
2023-11-22T22:53:34.761Z,95.00
2023-11-22T22:55:38.107Z,96.00
2023-11-22T22:57:40.265Z,96.30
2023-11-22T22:59:43.375Z,94.70
2023-11-22T23:01:47.939Z,95.40
2023-11-22T23:03:50.160Z,94.80
2023-11-22T23:05:52.254Z,95.80
2023-11-22T23:07:54.340Z,95.60
2023-11-22T23:09:57.638Z,95.20
2023-11-22T23:12:01.888Z,95.00
2023-11-22T23:14:06.833Z,95.20
2023-11-22T23:16:08.699Z,95.30
2023-11-22T23:18:11.342Z,95.30
2023-11-22T23:20:14.449Z,95.40
2023-11-22T23:22:16.813Z,94.90
2023-11-22T23:26:27.317Z,95.20
2023-11-22T23:28:33.392Z,95.30
2023-11-22T23:30:35.512Z,95.20
2023-11-22T23:32:37.886Z,95.10
2023-11-22T23:34:40.771Z,95.00
2023-11-22T23:36:43.038Z,95.30
2023-11-22T23:38:46.649Z,95.30
2023-11-22T23:40:49.170Z,95.00
2023-11-22T23:42:51.263Z,95.10
2023-11-22T23:44:54.689Z,94.70
2023-11-22T23:46:56.641Z,95.30
2023-11-22T23:48:59.734Z,94.60
2023-11-22T23:51:01.946Z,94.90
2023-11-22T23:53:03.965Z,94.70
2023-11-22T23:55:11.992Z,95.20
2023-11-22T23:57:14.046Z,94.80
2023-11-22T23:59:17.841Z,95.20
